Tanja Jacob — A8YR7 — position and weather

sailwx.info

Track history (hours):
 
Tides and Currents Weather Stations Pressure Air Temp Water Temp Dewpoint Dewpoint Depression Visibility Wind Speed Wind Dir Waves Ship Positions

Tanja Jacob

Last reported at 2015-Mar-02 04:33 UTC. Time now 2015-Mar-02 05:10 UTC.
Position N 34°26' E 033°23'.

Length 227 m; draft 12.8 m.

Type: Ship. MMSI: 636092217.

Date/timePositionNaut miles runAvg speedWind from/ knotsBaromVisibWave heightAir tempDewpointWater temp
2015-Mar-02 04:33N 34°26' E 033°23'0 0.2
2015-Mar-02 03:33N 34°26' E 033°23'0 0.3
2015-Mar-02 02:33N 34°26' E 033°23'0 0.4
2015-Mar-02 01:33N 34°26' E 033°22'0 0.5
2015-Mar-02 00:33N 34°26' E 033°22'0 0.5
2015-Mar-01 23:33N 34°27' E 033°21'0 0.4
2015-Mar-01 22:33N 34°27' E 033°21'0 0.5
2015-Mar-01 21:33N 34°27' E 033°20'3 3.2
2015-Mar-01 20:33N 34°24' E 033°19'2 1.9
2015-Mar-01 19:33N 34°22' E 033°19'0 0.5
2015-Mar-01 18:33N 34°22' E 033°18'0 0.5
2015-Mar-01 17:33N 34°23' E 033°18'0 0.4
2015-Mar-01 16:33N 34°23' E 033°17'0 0.4
2015-Mar-01 15:33N 34°23' E 033°17'0 0.4
2015-Mar-01 14:33N 34°24' E 033°17'1 0.5
2015-Mar-01 13:32N 34°24' E 033°16'1 0.8
2015-Mar-01 12:33N 34°25' E 033°16'1 0.7
2015-Mar-01 11:33N 34°25' E 033°15'1 0.8
2015-Mar-01 10:33N 34°26' E 033°16'9 8.6
2015-Mar-01 09:33N 34°21' E 033°07'1111.3
2015-Mar-01 08:34N 34°22' E 032°53'  
2015-Feb-23 14:17N 36°49' E 001°06'2512.4
2015-Feb-23 12:16N 36°44' E 000°35'27811.5
2015-Feb-22 12:07N 36°01' W 005°05'915.7
2015-Feb-22 11:33N 36°01' W 005°16'8 7.4
2015-Feb-22 10:29N 36°05' W 005°24'0 0.1
2015-Feb-22 09:32N 36°05' W 005°24'0 0.0
2015-Feb-22 08:28N 36°05' W 005°24'0 0.1
2015-Feb-22 07:28N 36°05' W 005°24'0 0.0
2015-Feb-22 06:31N 36°05' W 005°24'0 0.2
2015-Feb-22 05:28N 36°05' W 005°24'0 0.0
2015-Feb-22 04:22N 36°05' W 005°24'0 0.2
2015-Feb-22 03:28N 36°05' W 005°24'0 0.1
2015-Feb-22 02:31N 36°05' W 005°24'0 0.1
2015-Feb-22 01:33N 36°05' W 005°24'0 0.1
2015-Feb-22 00:32N 36°05' W 005°24'0 0.0
2015-Feb-21 23:33N 36°05' W 005°24'0 0.2
2015-Feb-21 22:32N 36°05' W 005°24'0 0.0
2015-Feb-21 21:32N 36°05' W 005°24'0 0.0
2015-Feb-21 20:31N 36°05' W 005°24'0 0.1
2015-Feb-21 19:32N 36°05' W 005°24'0 0.0
2015-Feb-21 18:30N 36°05' W 005°24'0 0.0
2015-Feb-21 17:30N 36°05' W 005°24'0 0.1
2015-Feb-21 16:29N 36°05' W 005°24'0 0.1
2015-Feb-21 15:32N 36°05' W 005°24'0 0.1
2015-Feb-21 14:23N 36°05' W 005°24'0 0.1
2015-Feb-21 13:31N 36°05' W 005°24'0 0.1
2015-Feb-21 12:28N 36°05' W 005°24'0 0.1
2015-Feb-21 11:33N 36°05' W 005°24'0 0.0
2015-Feb-21 10:30N 36°05' W 005°24'0 0.1
2015-Feb-21 09:29N 36°05' W 005°24'0 0.0
2015-Feb-21 08:32N 36°05' W 005°24'3 3.0
2015-Feb-21 07:33N 36°03' W 005°22'7 6.9
2015-Feb-21 06:33N 35°58' W 005°27'  
Track history (hours):
 
Tides and Currents Weather Stations Pressure Air Temp Water Temp Dewpoint Dewpoint Depression Visibility Wind Speed Wind Dir Waves Ship Positions

Tanja Jacob

Last reported at 2015-Mar-02 04:33 UTC. Time now 2015-Mar-02 05:10 UTC.
Position N 34°26' E 033°23'.

Length 227 m; draft 12.8 m.

Type: Ship. MMSI: 636092217.

Date/timePositionNaut miles runAvg speedWind from/ knotsBaromVisibWave heightAir tempDewpointWater temp
2015-Mar-02 04:33N 34°26' E 033°23'0 0.2
2015-Mar-02 03:33N 34°26' E 033°23'0 0.3
2015-Mar-02 02:33N 34°26' E 033°23'0 0.4
2015-Mar-02 01:33N 34°26' E 033°22'0 0.5
2015-Mar-02 00:33N 34°26' E 033°22'0 0.5
2015-Mar-01 23:33N 34°27' E 033°21'0 0.4
2015-Mar-01 22:33N 34°27' E 033°21'0 0.5
2015-Mar-01 21:33N 34°27' E 033°20'3 3.2
2015-Mar-01 20:33N 34°24' E 033°19'2 1.9
2015-Mar-01 19:33N 34°22' E 033°19'0 0.5
2015-Mar-01 18:33N 34°22' E 033°18'0 0.5
2015-Mar-01 17:33N 34°23' E 033°18'0 0.4
2015-Mar-01 16:33N 34°23' E 033°17'0 0.4
2015-Mar-01 15:33N 34°23' E 033°17'0 0.4
2015-Mar-01 14:33N 34°24' E 033°17'1 0.5
2015-Mar-01 13:32N 34°24' E 033°16'1 0.8
2015-Mar-01 12:33N 34°25' E 033°16'1 0.7
2015-Mar-01 11:33N 34°25' E 033°15'1 0.8
2015-Mar-01 10:33N 34°26' E 033°16'9 8.6
2015-Mar-01 09:33N 34°21' E 033°07'1111.3
2015-Mar-01 08:34N 34°22' E 032°53'  
2015-Feb-23 14:17N 36°49' E 001°06'2512.4
2015-Feb-23 12:16N 36°44' E 000°35'27811.5
2015-Feb-22 12:07N 36°01' W 005°05'915.7
2015-Feb-22 11:33N 36°01' W 005°16'8 7.4
2015-Feb-22 10:29N 36°05' W 005°24'0 0.1
2015-Feb-22 09:32N 36°05' W 005°24'0 0.0
2015-Feb-22 08:28N 36°05' W 005°24'0 0.1
2015-Feb-22 07:28N 36°05' W 005°24'0 0.0
2015-Feb-22 06:31N 36°05' W 005°24'0 0.2
2015-Feb-22 05:28N 36°05' W 005°24'0 0.0
2015-Feb-22 04:22N 36°05' W 005°24'0 0.2
2015-Feb-22 03:28N 36°05' W 005°24'0 0.1
2015-Feb-22 02:31N 36°05' W 005°24'0 0.1
2015-Feb-22 01:33N 36°05' W 005°24'0 0.1
2015-Feb-22 00:32N 36°05' W 005°24'0 0.0
2015-Feb-21 23:33N 36°05' W 005°24'0 0.2
2015-Feb-21 22:32N 36°05' W 005°24'0 0.0
2015-Feb-21 21:32N 36°05' W 005°24'0 0.0
2015-Feb-21 20:31N 36°05' W 005°24'0 0.1
2015-Feb-21 19:32N 36°05' W 005°24'0 0.0
2015-Feb-21 18:30N 36°05' W 005°24'0 0.0
2015-Feb-21 17:30N 36°05' W 005°24'0 0.1
2015-Feb-21 16:29N 36°05' W 005°24'0 0.1
2015-Feb-21 15:32N 36°05' W 005°24'0 0.1
2015-Feb-21 14:23N 36°05' W 005°24'0 0.1
2015-Feb-21 13:31N 36°05' W 005°24'0 0.1
2015-Feb-21 12:28N 36°05' W 005°24'0 0.1
2015-Feb-21 11:33N 36°05' W 005°24'0 0.0
2015-Feb-21 10:30N 36°05' W 005°24'0 0.1
2015-Feb-21 09:29N 36°05' W 005°24'0 0.0
2015-Feb-21 08:32N 36°05' W 005°24'3 3.0
2015-Feb-21 07:33N 36°03' W 005°22'7 6.9
2015-Feb-21 06:33N 35°58' W 005°27'  

Dump ship's entire track history